Time;durP1;ratioP1;P1;durP2;ratioP2;P2;SDS_P1;SDS_P2;PMS_P1;PMS_P2;Temp;Humidity;BMP_temperature;BMP_pressure;BME280_temperature;BME280_humidity;BME280_pressure;Samples;Min_cycle;Max_cycle;Signal;HPM_P1;HPM_P2
2021/05/11 00:01:12;;;;;;;6.85;1.67;;;;;;;11.43;100.00;100799.56;5226050;28;20024;-85
2021/05/11 00:03:44;;;;;;;5.88;1.85;;;;;;;11.39;100.00;100804.44;5224891;28;20124;-85
2021/05/11 00:06:14;;;;;;;5.38;1.95;;;;;;;11.39;100.00;100804.44;5225954;28;20054;-85
2021/05/11 00:08:45;;;;;;;2.75;1.60;;;;;;;11.39;100.00;100804.44;5226123;28;20029;-85
2021/05/11 00:11:15;;;;;;;7.32;1.92;;;;;;;11.38;100.00;100810.81;5224758;28;20407;-85
2021/05/11 00:13:46;;;;;;;5.03;1.90;;;;;;;11.34;100.00;100807.63;5225776;28;20036;-85
2021/05/11 00:16:16;;;;;;;8.95;2.30;;;;;;;11.37;100.00;100809.16;5225872;28;20047;-85
2021/05/11 00:18:47;;;;;;;5.75;2.13;;;;;;;11.54;100.00;100802.69;5225743;28;20031;-84
2021/05/11 00:21:17;;;;;;;4.30;1.83;;;;;;;11.45;100.00;100797.56;5224739;28;20017;-85
2021/05/11 00:23:48;;;;;;;8.18;1.85;;;;;;;11.40;100.00;100798.91;5225627;28;20174;-85
2021/05/11 00:26:18;;;;;;;5.00;1.85;;;;;;;11.32;100.00;100801.59;5224395;28;20411;-85
2021/05/11 00:28:49;;;;;;;3.60;2.10;;;;;;;11.26;100.00;100791.56;5225535;28;20043;-84
2021/05/11 00:31:19;;;;;;;5.93;2.10;;;;;;;11.19;100.00;100801.28;5239511;28;20048;-85
2021/05/11 00:33:52;;;;;;;8.57;1.90;;;;;;;11.10;100.00;100791.59;5225474;28;20024;-85
2021/05/11 00:36:23;;;;;;;9.93;3.20;;;;;;;11.02;100.00;100792.44;5225275;28;20029;-85
2021/05/11 00:38:54;;;;;;;8.57;2.72;;;;;;;10.98;100.00;100787.56;5207823;28;20016;-85
2021/05/11 00:41:24;;;;;;;3.78;2.05;;;;;;;10.91;100.00;100781.22;5225242;28;20059;-85
2021/05/11 00:43:55;;;;;;;5.70;2.05;;;;;;;10.86;100.00;100781.72;5225652;28;20516;-85
2021/05/11 00:46:27;;;;;;;8.90;1.88;;;;;;;10.81;100.00;100776.88;5225230;28;20641;-85
2021/05/11 00:48:58;;;;;;;4.72;1.80;;;;;;;10.79;100.00;100788.75;5225271;28;20037;-84
2021/05/11 00:51:28;;;;;;;11.88;2.28;;;;;;;10.73;100.00;100794.81;5225191;28;20469;-85
2021/05/11 00:53:58;;;;;;;4.57;1.80;;;;;;;10.72;100.00;100791.28;5223652;28;20043;-85
2021/05/11 00:56:29;;;;;;;8.60;2.40;;;;;;;10.67;100.00;100790.97;5225240;28;20033;-84
2021/05/11 00:58:59;;;;;;;11.07;3.10;;;;;;;10.57;100.00;100796.50;5239865;28;20033;-85
2021/05/11 01:01:30;;;;;;;7.45;2.17;;;;;;;10.45;100.00;100786.28;5225202;28;20032;-85
2021/05/11 01:04:00;;;;;;;15.73;2.38;;;;;;;10.38;100.00;100794.13;5225813;28;20021;-85
2021/05/11 01:06:31;;;;;;;5.05;1.73;;;;;;;10.23;100.00;100791.22;5225151;28;20025;-85
2021/05/11 01:09:03;;;;;;;4.40;2.25;;;;;;;10.16;100.00;100794.75;5224109;28;20037;-85
2021/05/11 01:11:35;;;;;;;4.47;1.90;;;;;;;10.07;100.00;100801.94;5224217;28;20108;-85
2021/05/11 01:14:06;;;;;;;6.75;2.72;;;;;;;9.97;100.00;100793.19;5212754;28;20085;-85
2021/05/11 01:16:41;;;;;;;5.72;2.30;;;;;;;9.89;100.00;100787.81;5208017;28;20491;-85
2021/05/11 01:19:48;;;;;;;8.68;2.40;;;;;;;9.84;100.00;100801.72;5225382;28;20028;-85
2021/05/11 01:22:45;;;;;;;7.00;2.55;;;;;;;9.77;100.00;100801.50;5225443;28;20041;-85
2021/05/11 01:25:20;;;;;;;6.25;2.63;;;;;;;9.71;100.00;100804.84;5223747;28;20503;-84
2021/05/11 01:31:17;;;;;;;13.60;3.15;;;;;;;9.58;100.00;100799.09;5225292;28;20033;-85
2021/05/11 01:48:04;;;;;;;7.13;2.53;;;;;;;9.21;100.00;100796.72;5224686;28;20028;-84
2021/05/11 01:50:56;;;;;;;7.20;3.13;;;;;;;9.17;100.00;100801.56;5220131;28;20395;-84
2021/05/11 02:10:49;;;;;;;4.82;2.40;;;;;;;8.77;100.00;100789.56;5223675;28;20037;-85
2021/05/11 02:24:11;;;;;;;7.03;3.20;;;;;;;8.53;100.00;100794.72;5213947;28;20025;-85
2021/05/11 02:26:41;;;;;;;10.25;4.30;;;;;;;8.52;100.00;100796.56;5224334;28;20021;-84
2021/05/11 02:29:12;;;;;;;13.73;3.47;;;;;;;8.53;100.00;100790.25;5223198;28;20040;-84
2021/05/11 02:31:42;;;;;;;10.48;3.90;;;;;;;8.54;100.00;100789.25;5224306;28;20407;-84
2021/05/11 02:34:12;;;;;;;5.45;3.28;;;;;;;8.56;100.00;100791.75;5224323;28;20028;-84
2021/05/11 02:36:43;;;;;;;10.50;3.92;;;;;;;8.58;100.00;100795.09;5224450;28;20017;-84
2021/05/11 02:39:13;;;;;;;12.48;3.78;;;;;;;8.55;100.00;100790.91;5223818;28;20504;-84
2021/05/11 02:41:45;;;;;;;6.05;3.50;;;;;;;8.61;100.00;100791.28;5223602;28;20130;-85
2021/05/11 02:44:18;;;;;;;7.97;3.80;;;;;;;8.66;100.00;100789.00;5226101;28;20039;-85
2021/05/11 02:46:49;;;;;;;9.82;4.00;;;;;;;8.62;100.00;100793.81;5227250;28;20025;-85
2021/05/11 02:49:22;;;;;;;12.50;3.85;;;;;;;8.60;100.00;100789.63;5227469;28;20408;-85
2021/05/11 02:51:53;;;;;;;10.10;3.88;;;;;;;8.61;100.00;100793.97;5227854;28;20083;-85
2021/05/11 02:54:23;;;;;;;10.77;3.97;;;;;;;8.59;100.00;100796.81;5228122;28;20374;-85
2021/05/11 02:56:54;;;;;;;5.97;3.80;;;;;;;8.57;100.00;100788.91;5226642;28;20106;-84
2021/05/11 02:59:24;;;;;;;13.07;4.57;;;;;;;8.57;100.00;100786.25;5228627;28;20352;-85
2021/05/11 03:01:55;;;;;;;7.05;4.45;;;;;;;8.54;100.00;100786.56;5243272;28;20017;-85
2021/05/11 03:04:25;;;;;;;7.90;4.65;;;;;;;8.57;100.00;100778.22;5228356;28;20017;-85
2021/05/11 03:06:57;;;;;;;10.00;4.35;;;;;;;8.58;100.00;100776.38;5226457;28;20526;-85
2021/05/11 03:09:28;;;;;;;14.48;4.30;;;;;;;8.57;100.00;100778.22;5227423;28;20452;-85
2021/05/11 03:11:58;;;;;;;14.93;4.10;;;;;;;8.48;100.00;100779.19;5227874;28;20029;-85
2021/05/11 03:14:33;;;;;;;11.13;4.07;;;;;;;8.44;100.00;100777.81;5227408;28;20056;-85
2021/05/11 03:17:03;;;;;;;8.97;4.43;;;;;;;8.41;100.00;100786.13;5226407;28;20020;-85
2021/05/11 03:19:34;;;;;;;9.07;4.50;;;;;;;8.32;100.00;100773.63;5227119;28;20332;-85
2021/05/11 03:22:04;;;;;;;16.35;5.65;;;;;;;8.31;100.00;100780.81;5227548;28;20491;-85
2021/05/11 03:24:37;;;;;;;8.80;3.50;;;;;;;8.21;100.00;100781.88;5227253;28;20033;-85
2021/05/11 03:27:07;;;;;;;12.05;4.43;;;;;;;8.16;100.00;100790.34;5227215;28;20066;-85
2021/05/11 03:29:39;;;;;;;8.30;4.72;;;;;;;8.08;100.00;100790.25;5227178;28;20116;-85
2021/05/11 03:32:10;;;;;;;11.02;4.53;;;;;;;8.01;100.00;100787.38;5227133;28;20112;-85
2021/05/11 03:34:40;;;;;;;18.52;5.05;;;;;;;7.92;100.00;100788.25;5227025;28;20116;-84
2021/05/11 03:37:11;;;;;;;10.65;4.60;;;;;;;7.89;100.00;100795.75;5227363;28;20480;-85
2021/05/11 03:39:42;;;;;;;11.15;4.30;;;;;;;7.79;100.00;100802.00;5226919;28;20029;-85
2021/05/11 03:42:18;;;;;;;12.80;4.78;;;;;;;7.73;100.00;100796.38;5227200;28;20476;-85
2021/05/11 03:44:53;;;;;;;11.38;5.57;;;;;;;7.66;100.00;100792.66;5226697;28;20029;-85
2021/05/11 03:47:25;;;;;;;7.95;3.88;;;;;;;7.62;100.00;100801.94;5227126;28;20040;-85
2021/05/11 03:49:55;;;;;;;9.13;4.55;;;;;;;7.64;100.00;100794.63;5226459;28;20501;-85
2021/05/11 03:52:26;;;;;;;11.88;4.90;;;;;;;7.68;100.00;100793.31;5225592;28;20096;-85
2021/05/11 03:54:56;;;;;;;12.95;4.50;;;;;;;7.70;100.00;100794.88;5226643;28;20021;-85
2021/05/11 03:57:26;;;;;;;7.20;3.67;;;;;;;7.65;100.00;100785.63;5226435;28;20032;-85
2021/05/11 03:59:57;;;;;;;12.52;5.55;;;;;;;7.60;100.00;100787.91;5226508;28;20061;-85
2021/05/11 04:02:27;;;;;;;8.88;3.88;;;;;;;7.56;100.00;100786.50;5227206;28;20021;-85
2021/05/11 04:04:58;;;;;;;9.82;5.43;;;;;;;7.52;100.00;100800.16;5226832;28;20044;-85
2021/05/11 04:07:28;;;;;;;10.40;4.70;;;;;;;7.48;100.00;100789.91;5226136;28;20053;-85
2021/05/11 04:10:01;;;;;;;9.35;4.60;;;;;;;7.47;100.00;100797.06;5235372;28;20550;-85
2021/05/11 04:12:51;;;;;;;10.13;4.85;;;;;;;7.39;100.00;100797.00;5226505;28;20084;-85
2021/05/11 04:18:11;;;;;;;12.77;5.25;;;;;;;7.38;100.00;100802.47;5226096;28;20024;-85
2021/05/11 04:20:41;;;;;;;17.85;5.25;;;;;;;7.35;100.00;100798.28;5225939;28;20388;-85
2021/05/11 04:23:12;;;;;;;7.13;4.97;;;;;;;7.34;100.00;100807.28;5226096;28;20025;-85
2021/05/11 04:25:43;;;;;;;10.02;5.05;;;;;;;7.33;100.00;100805.59;5224909;28;20028;-85
2021/05/11 04:28:14;;;;;;;7.43;4.50;;;;;;;7.35;100.00;100808.09;5226231;28;20032;-85
2021/05/11 04:30:44;;;;;;;6.30;4.30;;;;;;;7.33;100.00;100805.59;5224775;28;20025;-85
2021/05/11 04:33:14;;;;;;;10.68;4.68;;;;;;;7.32;100.00;100797.72;5225157;28;20025;-85
2021/05/11 04:35:45;;;;;;;7.43;3.58;;;;;;;7.30;100.00;100784.53;5225996;28;20484;-85
2021/05/11 04:38:16;;;;;;;10.52;4.68;;;;;;;7.32;100.00;100782.53;5225822;28;20036;-84
2021/05/11 04:40:46;;;;;;;12.23;3.80;;;;;;;7.37;100.00;100784.75;5225551;28;20526;-84
2021/05/11 04:43:18;;;;;;;6.78;4.25;;;;;;;7.45;100.00;100790.22;5225940;28;20476;-84
2021/05/11 04:45:50;;;;;;;12.70;4.10;;;;;;;7.52;100.00;100786.81;5225650;28;20111;-85
2021/05/11 04:48:21;;;;;;;12.68;5.43;;;;;;;7.58;100.00;100782.72;5224692;28;20029;-85
2021/05/11 04:50:51;;;;;;;9.30;4.43;;;;;;;7.60;100.00;100783.41;5224982;28;20456;-85
2021/05/11 04:53:22;;;;;;;8.88;4.43;;;;;;;7.74;100.00;100795.44;5225546;28;20488;-85
2021/05/11 04:55:53;;;;;;;20.17;6.40;;;;;;;7.86;100.00;100783.53;5225435;28;20052;-85
2021/05/11 04:58:24;;;;;;;13.73;6.05;;;;;;;8.11;100.00;100789.13;5219850;28;20063;-85
2021/05/11 05:01:01;;;;;;;12.02;5.68;;;;;;;8.18;100.00;100783.06;5225483;28;20029;-85
2021/05/11 05:03:37;;;;;;;13.35;6.28;;;;;;;8.32;100.00;100787.00;5224311;28;20033;-85
2021/05/11 05:06:08;;;;;;;13.65;5.63;;;;;;;8.46;100.00;100789.16;5224838;28;20033;-84
2021/05/11 05:08:39;;;;;;;12.88;5.70;;;;;;;8.61;100.00;100797.47;5224196;28;20106;-85
2021/05/11 05:11:09;;;;;;;14.93;5.40;;;;;;;8.76;100.00;100795.94;5225142;28;20040;-85
2021/05/11 05:13:40;;;;;;;17.20;5.18;;;;;;;8.95;100.00;100794.91;5225212;28;20025;-85
2021/05/11 05:16:10;;;;;;;18.73;5.68;;;;;;;9.13;100.00;100794.00;5225186;28;20021;-85
2021/05/11 05:18:41;;;;;;;8.82;4.53;;;;;;;9.33;100.00;100790.09;5225273;28;20506;-85
2021/05/11 05:21:13;;;;;;;13.60;5.07;;;;;;;9.50;100.00;100797.22;5225037;28;20464;-85
2021/05/11 05:23:46;;;;;;;11.88;5.75;;;;;;;9.66;100.00;100799.13;5224025;28;20108;-85
2021/05/11 05:26:22;;;;;;;14.43;4.97;;;;;;;9.74;100.00;100795.63;5224881;28;20058;-85
2021/05/11 05:28:52;;;;;;;21.75;5.13;;;;;;;9.93;100.00;100794.53;5225048;28;20488;-85
2021/05/11 05:31:23;;;;;;;13.73;5.35;;;;;;;10.20;100.00;100801.47;5224983;28;20021;-85
2021/05/11 05:33:53;;;;;;;13.65;4.57;;;;;;;10.49;100.00;100806.38;5225168;28;20408;-85
2021/05/11 05:36:24;;;;;;;14.52;5.18;;;;;;;11.12;100.00;100805.69;5224884;28;20063;-85
2021/05/11 05:38:55;;;;;;;9.40;4.85;;;;;;;12.12;100.00;100809.50;5224974;28;20110;-85
2021/05/11 05:41:26;;;;;;;14.75;4.90;;;;;;;13.28;100.00;100804.88;5223724;28;20542;-85
2021/05/11 05:43:58;;;;;;;11.95;4.22;;;;;;;14.31;100.00;100799.34;5224973;28;20094;-86
2021/05/11 05:46:29;;;;;;;12.00;3.35;;;;;;;15.36;100.00;100806.69;5224647;28;20078;-85
2021/05/11 05:48:59;;;;;;;13.95;3.45;;;;;;;16.15;100.00;100803.53;5223873;28;20032;-85
2021/05/11 05:51:30;;;;;;;10.65;2.60;;;;;;;16.64;100.00;100801.56;5223536;28;20044;-85
2021/05/11 05:54:00;;;;;;;8.95;2.78;;;;;;;17.52;100.00;100805.69;5224990;28;20496;-85
2021/05/11 05:56:31;;;;;;;9.88;3.03;;;;;;;17.98;100.00;100803.88;5224004;28;20017;-86
2021/05/11 05:59:01;;;;;;;10.63;3.40;;;;;;;18.44;100.00;100800.06;5224629;28;20032;-85
2021/05/11 06:01:32;;;;;;;19.08;2.90;;;;;;;18.94;100.00;100806.41;5224893;28;20025;-86
2021/05/11 06:04:16;;;;;;;11.50;3.17;;;;;;;19.18;100.00;100798.44;5224696;28;20098;-86
2021/05/11 06:06:48;;;;;;;9.00;3.05;;;;;;;19.95;100.00;100799.69;5224672;28;20021;-86
2021/05/11 06:09:22;;;;;;;10.05;3.50;;;;;;;19.96;90.45;100789.63;5224637;28;20036;-86
2021/05/11 06:12:00;;;;;;;7.00;3.00;;;;;;;20.57;79.77;100788.56;5224627;28;20115;-87
2021/05/11 06:17:21;;;;;;;9.02;2.80;;;;;;;19.63;83.34;100782.72;5211385;28;20449;-87
2021/05/11 06:19:52;;;;;;;13.50;3.45;;;;;;;18.88;100.00;100780.13;5220382;28;20100;-85
2021/05/11 06:22:23;;;;;;;16.25;3.53;;;;;;;18.31;100.00;100776.53;5226359;28;20029;-84
2021/05/11 06:24:53;;;;;;;8.60;2.83;;;;;;;17.07;100.00;100778.44;5227274;28;20036;-85
2021/05/11 06:27:24;;;;;;;7.85;3.30;;;;;;;16.81;100.00;100781.97;5226189;28;20040;-84
2021/05/11 06:29:56;;;;;;;8.82;3.65;;;;;;;16.22;100.00;100773.78;5226405;28;20121;-85
2021/05/11 06:32:28;;;;;;;9.90;3.88;;;;;;;15.93;100.00;100774.97;5227832;28;20021;-86
2021/05/11 06:35:01;;;;;;;11.57;3.28;;;;;;;15.92;100.00;100771.41;5227064;28;20029;-86
2021/05/11 06:37:32;;;;;;;9.93;2.80;;;;;;;16.02;100.00;100768.34;5227571;28;20108;-85
2021/05/11 06:40:03;;;;;;;12.48;3.50;;;;;;;16.02;100.00;100769.16;5226865;28;20112;-85
2021/05/11 06:42:36;;;;;;;11.73;3.42;;;;;;;16.09;100.00;100771.03;5225730;28;20094;-85
2021/05/11 06:55:30;;;;;;;10.38;3.55;;;;;;;15.97;100.00;100781.63;5226857;28;20060;-85
2021/05/11 06:58:03;;;;;;;13.45;3.35;;;;;;;15.85;100.00;100788.66;5220938;28;20522;-86
2021/05/11 07:00:34;;;;;;;12.50;3.70;;;;;;;16.30;100.00;100787.13;5226743;28;20025;-84
2021/05/11 07:03:04;;;;;;;11.18;3.40;;;;;;;16.31;100.00;100788.78;5225879;28;20028;-84
2021/05/11 07:05:36;;;;;;;11.15;4.25;;;;;;;16.26;100.00;100785.84;5226910;28;20059;-83
2021/05/11 07:10:57;;;;;;;10.57;3.88;;;;;;;16.14;100.00;100801.03;5228475;28;20044;-83
2021/05/11 07:13:27;;;;;;;11.52;3.72;;;;;;;16.02;100.00;100803.50;5227911;28;20036;-83
2021/05/11 07:15:57;;;;;;;12.25;4.13;;;;;;;16.03;100.00;100802.47;5228081;28;20028;-83
2021/05/11 07:18:28;;;;;;;8.75;4.03;;;;;;;15.96;100.00;100799.72;5226986;28;20510;-84
2021/05/11 07:21:00;;;;;;;10.95;3.72;;;;;;;16.02;100.00;100798.09;5228047;28;20025;-83
2021/05/11 07:23:31;;;;;;;10.25;3.53;;;;;;;15.89;100.00;100800.75;5226833;28;20028;-83
2021/05/11 07:28:42;;;;;;;12.98;3.83;;;;;;;15.92;100.00;100800.34;5228212;28;20128;-83
2021/05/11 07:31:15;;;;;;;11.43;3.85;;;;;;;15.83;100.00;100796.97;5226983;28;20103;-83
2021/05/11 07:33:53;;;;;;;12.93;3.70;;;;;;;15.90;100.00;100797.81;5227848;28;20457;-84
2021/05/11 07:36:24;;;;;;;15.35;4.07;;;;;;;15.90;100.00;100807.81;5226823;28;20408;-84
2021/05/11 07:38:54;;;;;;;13.68;4.10;;;;;;;15.92;100.00;100806.59;5226981;28;20368;-83
2021/05/11 07:41:25;;;;;;;14.82;4.80;;;;;;;15.84;100.00;100797.81;5225366;28;20108;-84
2021/05/11 07:43:58;;;;;;;12.57;3.83;;;;;;;15.95;100.00;100802.63;5226450;28;20584;-84
2021/05/11 07:49:17;;;;;;;14.38;4.25;;;;;;;16.02;100.00;100808.91;5227241;28;20172;-84
2021/05/11 08:05:53;;;;;;;11.63;4.05;;;;;;;16.11;100.00;100813.09;5226079;28;20025;-84
2021/05/11 08:16:44;;;;;;;17.48;3.80;;;;;;;16.37;100.00;100797.97;5240171;28;20043;-83
2021/05/11 08:30:00;;;;;;;11.95;3.83;;;;;;;16.49;100.00;100815.28;5227163;28;20025;-84
2021/05/11 08:32:30;;;;;;;16.13;4.30;;;;;;;16.59;100.00;100813.00;5227990;28;20037;-83
2021/05/11 08:35:01;;;;;;;12.07;4.55;;;;;;;16.71;100.00;100810.50;5228272;28;20488;-84
2021/05/11 08:37:31;;;;;;;12.07;3.38;;;;;;;16.76;100.00;100814.28;5228591;28;20507;-83
2021/05/11 08:40:03;;;;;;;10.75;4.15;;;;;;;16.89;100.00;100818.06;5226373;28;20063;-84
2021/05/11 08:42:33;;;;;;;21.98;4.75;;;;;;;16.69;100.00;100818.84;5226909;28;20036;-83
2021/05/11 08:45:07;;;;;;;10.23;3.95;;;;;;;16.93;100.00;100814.72;5215086;28;20029;-83
2021/05/11 08:47:53;;;;;;;12.27;3.92;;;;;;;16.82;100.00;100818.91;5226024;28;20029;-84
2021/05/11 08:50:33;;;;;;;14.38;4.18;;;;;;;17.09;100.00;100822.44;5225612;28;20037;-84
2021/05/11 08:53:16;;;;;;;10.23;4.55;;;;;;;17.32;100.00;100822.00;5212766;28;20040;-84
2021/05/11 09:04:37;;;;;;;10.85;3.15;;;;;;;17.64;100.00;100824.00;5225020;28;20044;-85
2021/05/11 09:24:40;;;;;;;12.88;3.60;;;;;;;18.10;100.00;100821.13;5227672;28;20107;-84
2021/05/11 09:30:07;;;;;;;9.32;3.40;;;;;;;18.10;100.00;100829.28;5232731;28;20041;-83
2021/05/11 09:54:37;;;;;;;8.20;3.20;;;;;;;18.51;97.48;100828.84;5226479;28;20029;-86
2021/05/11 09:57:35;;;;;;;8.07;2.90;;;;;;;18.43;100.00;100826.41;5227655;28;20087;-86
2021/05/11 10:00:58;;;;;;;8.00;2.78;;;;;;;18.69;100.00;100827.31;5228656;28;20021;-86
2021/05/11 10:27:04;;;;;;;8.93;2.15;;;;;;;19.39;74.66;100811.63;5215808;28;20103;-86
2021/05/11 10:38:51;;;;;;;3.30;1.33;;;;;;;20.61;66.25;100770.69;5227307;28;20021;-85
2021/05/11 10:41:21;;;;;;;9.05;1.77;;;;;;;20.55;64.18;100766.19;5226989;28;20017;-85
2021/05/11 10:46:57;;;;;;;9.25;2.33;;;;;;;20.97;60.60;100760.66;5227211;28;20021;-85
2021/05/11 10:49:39;;;;;;;7.97;1.65;;;;;;;20.83;70.18;100755.41;5227243;28;20492;-85
2021/05/11 10:52:21;;;;;;;6.45;1.95;;;;;;;20.93;67.40;100758.41;5226891;28;20505;-85
2021/05/11 10:55:00;;;;;;;9.70;1.92;;;;;;;21.15;62.03;100746.91;5226980;28;20327;-84
2021/05/11 10:57:43;;;;;;;7.43;1.75;;;;;;;21.49;63.06;100744.38;5225662;28;20432;-85
2021/05/11 11:00:21;;;;;;;6.63;1.73;;;;;;;21.37;60.42;100742.50;5226656;28;20024;-85
2021/05/11 11:03:15;;;;;;;5.97;1.15;;;;;;;21.55;56.93;100752.44;5226813;28;20040;-85
2021/05/11 11:05:52;;;;;;;9.02;1.75;;;;;;;21.45;56.54;100750.31;5227321;28;20016;-84
2021/05/11 11:08:34;;;;;;;6.18;1.42;;;;;;;21.84;56.10;100760.66;5227743;28;20048;-85
2021/05/11 11:11:20;;;;;;;9.07;1.58;;;;;;;21.43;57.42;100757.06;5228699;28;20025;-84
2021/05/11 11:13:53;;;;;;;4.68;1.33;;;;;;;21.64;56.77;100755.63;5227072;28;20033;-84
2021/05/11 11:16:25;;;;;;;13.10;2.17;;;;;;;21.61;58.47;100751.47;5226934;28;20045;-84
2021/05/11 11:19:07;;;;;;;6.95;1.85;;;;;;;21.54;59.40;100750.78;5227203;28;20036;-84
2021/05/11 11:22:00;;;;;;;6.22;1.52;;;;;;;22.02;52.64;100759.66;5226967;28;20057;-84
2021/05/11 11:24:36;;;;;;;5.55;1.52;;;;;;;22.01;52.73;100756.09;5219923;28;20422;-84
2021/05/11 11:27:07;;;;;;;9.77;1.60;;;;;;;22.17;53.89;100752.59;5226365;28;20055;-85
2021/05/11 11:29:38;;;;;;;3.58;1.55;;;;;;;22.65;55.05;100755.91;5226533;28;20451;-85
2021/05/11 11:32:08;;;;;;;8.27;1.80;;;;;;;22.60;53.79;100753.06;5226511;28;20028;-84
2021/05/11 11:34:40;;;;;;;5.88;1.73;;;;;;;22.26;55.65;100753.03;5225856;28;20373;-84
2021/05/11 11:37:13;;;;;;;7.22;1.67;;;;;;;22.45;54.73;100751.75;5226150;28;20063;-84
2021/05/11 11:39:48;;;;;;;37.30;2.35;;;;;;;22.31;55.72;100747.66;5226251;28;20059;-84
2021/05/11 11:42:22;;;;;;;6.05;1.88;;;;;;;22.62;54.83;100757.19;5225897;28;20037;-84
2021/05/11 11:44:58;;;;;;;5.67;1.53;;;;;;;22.67;55.39;100745.53;5226083;28;20031;-84
2021/05/11 11:47:30;;;;;;;4.70;1.73;;;;;;;22.43;52.49;100750.31;5226265;28;20508;-84
2021/05/11 11:50:05;;;;;;;6.88;1.75;;;;;;;22.41;54.11;100756.03;5225051;28;20763;-85
2021/05/11 11:57:57;;;;;;;11.10;2.05;;;;;;;22.51;55.34;100758.13;5218647;28;20021;-86
2021/05/11 12:00:29;;;;;;;8.60;2.33;;;;;;;22.44;52.75;100757.44;5224970;28;20391;-85
2021/05/11 12:03:03;;;;;;;7.80;2.15;;;;;;;22.63;51.69;100752.56;5224778;28;20380;-85
2021/05/11 12:05:38;;;;;;;8.95;2.30;;;;;;;22.32;48.34;100752.03;5223638;28;20090;-86
2021/05/11 12:10:49;;;;;;;8.30;2.35;;;;;;;22.10;46.80;100748.34;5225749;28;20040;-86
2021/05/11 12:13:23;;;;;;;5.65;1.50;;;;;;;22.25;50.59;100751.38;5224643;28;20082;-86
2021/05/11 12:16:16;;;;;;;5.55;1.55;;;;;;;22.74;49.15;100748.91;5224209;28;20025;-86
2021/05/11 12:19:01;;;;;;;8.57;2.05;;;;;;;22.63;49.28;100760.75;5225415;28;20100;-86
2021/05/11 12:21:35;;;;;;;9.57;2.35;;;;;;;22.20;53.67;100754.03;5224854;28;20511;-85
2021/05/11 12:24:08;;;;;;;5.78;1.67;;;;;;;22.00;52.13;100756.34;5225821;28;20093;-84
2021/05/11 12:26:41;;;;;;;10.27;2.25;;;;;;;22.19;51.54;100755.94;5226136;28;20017;-84
2021/05/11 12:29:14;;;;;;;10.32;2.33;;;;;;;22.11;47.65;100750.03;5224735;28;20033;-83
2021/05/11 12:31:47;;;;;;;8.02;2.03;;;;;;;22.65;46.36;100747.69;5230677;28;20035;-84
2021/05/11 12:34:24;;;;;;;9.82;2.08;;;;;;;22.35;49.51;100757.03;5235311;28;20025;-84
2021/05/11 12:36:58;;;;;;;7.47;2.20;;;;;;;22.13;52.81;100753.31;5235372;28;20060;-84
2021/05/11 12:39:45;;;;;;;8.75;2.30;;;;;;;22.19;54.12;100761.38;5235926;28;20097;-85
2021/05/11 12:42:24;;;;;;;8.25;1.80;;;;;;;22.22;51.21;100766.34;5236941;28;20032;-83
2021/05/11 12:45:02;;;;;;;8.32;2.13;;;;;;;22.09;50.58;100777.56;5235696;28;20017;-82
2021/05/11 12:47:47;;;;;;;10.15;2.35;;;;;;;22.10;49.29;100778.38;5234089;28;20021;-84
2021/05/11 12:50:34;;;;;;;10.48;2.53;;;;;;;22.44;51.06;100779.28;5231110;28;20071;-84
2021/05/11 12:53:32;;;;;;;8.45;2.13;;;;;;;22.48;52.64;100781.28;5223846;28;20529;-83
2021/05/11 12:56:15;;;;;;;8.38;1.70;;;;;;;22.55;50.51;100778.41;5234510;28;20028;-83
2021/05/11 12:59:09;;;;;;;8.20;2.22;;;;;;;22.58;48.84;100775.16;5233073;28;20029;-82
2021/05/11 13:04:57;;;;;;;5.72;1.83;;;;;;;22.31;48.62;100788.66;5228414;28;20388;-82
2021/05/11 13:16:14;;;;;;;7.07;1.90;;;;;;;21.40;51.01;100771.22;5213711;28;20104;-82
2021/05/11 13:29:56;;;;;;;5.90;1.70;;;;;;;20.50;57.57;100777.78;5227275;28;20032;-83
2021/05/11 13:32:50;;;;;;;6.88;1.80;;;;;;;20.44;57.00;100782.25;5225129;28;20037;-84
2021/05/11 13:35:21;;;;;;;9.65;2.08;;;;;;;20.44;58.90;100784.13;5224026;28;20265;-84
2021/05/11 13:37:52;;;;;;;6.10;1.45;;;;;;;20.30;62.06;100794.41;5224024;28;20076;-84
2021/05/11 13:40:22;;;;;;;9.23;1.83;;;;;;;20.47;55.31;100804.66;5223944;28;20048;-84
2021/05/11 13:42:53;;;;;;;7.55;1.50;;;;;;;20.12;57.40;100810.78;5223898;28;20040;-83
2021/05/11 13:45:24;;;;;;;4.15;1.17;;;;;;;19.05;59.05;100827.41;5224132;28;20020;-83
2021/05/11 13:48:00;;;;;;;9.40;1.45;;;;;;;17.99;64.71;100825.38;5224165;28;20532;-84
2021/05/11 13:50:47;;;;;;;7.15;1.38;;;;;;;17.77;70.34;100830.25;5223930;28;20388;-83
2021/05/11 13:53:20;;;;;;;4.38;1.08;;;;;;;17.13;75.87;100838.28;5223988;28;20153;-83
2021/05/11 14:04:02;;;;;;;4.03;1.13;;;;;;;16.69;94.14;100832.38;5223959;28;20112;-83
2021/05/11 14:06:33;;;;;;;3.78;1.10;;;;;;;16.54;96.28;100848.81;5224351;28;20117;-84
2021/05/11 14:09:06;;;;;;;4.38;0.85;;;;;;;16.33;99.02;100850.88;5223140;28;20392;-84
2021/05/11 14:11:38;;;;;;;3.83;1.00;;;;;;;16.22;100.00;100868.53;5223390;28;20108;-84
2021/05/11 14:14:10;;;;;;;7.28;1.27;;;;;;;16.48;100.00;100865.91;5223275;28;20032;-84
2021/05/11 14:16:42;;;;;;;3.10;1.08;;;;;;;16.54;100.00;100869.66;5223818;28;20021;-84
2021/05/11 14:19:14;;;;;;;6.80;1.10;;;;;;;16.29;100.00;100875.63;5223787;28;20025;-83
2021/05/11 14:21:46;;;;;;;5.65;1.15;;;;;;;16.42;100.00;100871.31;5224201;28;20091;-84
2021/05/11 14:24:16;;;;;;;3.15;1.00;;;;;;;16.44;100.00;100869.22;5222866;28;20028;-84
2021/05/11 14:26:47;;;;;;;3.78;1.17;;;;;;;16.58;100.00;100876.34;5223342;28;20033;-84
2021/05/11 14:29:17;;;;;;;3.65;0.93;;;;;;;16.65;100.00;100882.59;5223265;28;20056;-84
2021/05/11 14:31:50;;;;;;;3.42;0.90;;;;;;;16.64;100.00;100880.09;5223467;28;20025;-84
2021/05/11 14:34:22;;;;;;;5.10;1.42;;;;;;;16.61;100.00;100877.78;5223050;28;20017;-84
2021/05/11 14:36:52;;;;;;;4.80;1.23;;;;;;;16.67;100.00;100869.69;5223251;28;20499;-85
2021/05/11 14:39:23;;;;;;;4.60;1.00;;;;;;;16.40;100.00;100867.94;5223847;28;20037;-84
2021/05/11 14:41:54;;;;;;;8.60;1.17;;;;;;;16.63;100.00;100876.56;5226950;28;20442;-84
2021/05/11 14:44:26;;;;;;;4.95;1.20;;;;;;;16.75;100.00;100872.22;5226709;28;20396;-84
2021/05/11 14:46:57;;;;;;;4.70;0.93;;;;;;;16.72;100.00;100872.66;5225719;28;20025;-85
2021/05/11 14:49:27;;;;;;;3.67;1.02;;;;;;;16.56;100.00;100864.84;5226146;28;20033;-84
2021/05/11 14:51:58;;;;;;;6.93;1.17;;;;;;;16.62;100.00;100865.91;5227061;28;20120;-84
2021/05/11 14:54:28;;;;;;;2.50;0.98;;;;;;;16.62;100.00;100858.66;5226740;28;20104;-84
2021/05/11 14:56:59;;;;;;;2.38;1.13;;;;;;;16.52;100.00;100850.91;5231113;28;20028;-85
2021/05/11 14:59:29;;;;;;;4.15;0.93;;;;;;;16.66;100.00;100851.75;5228189;28;20033;-84
2021/05/11 15:02:00;;;;;;;5.47;1.42;;;;;;;16.91;100.00;100848.47;5228537;28;20539;-84
2021/05/11 15:04:30;;;;;;;5.93;1.13;;;;;;;16.81;100.00;100852.44;5229742;28;20024;-85
2021/05/11 15:07:01;;;;;;;5.53;1.00;;;;;;;16.94;100.00;100861.63;5231608;28;20101;-85
2021/05/11 15:09:31;;;;;;;3.20;1.02;;;;;;;16.73;96.90;100858.06;5230441;28;20033;-84
2021/05/11 15:12:02;;;;;;;1.40;0.70;;;;;;;16.60;98.12;100857.16;5230323;28;20063;-85
2021/05/11 15:14:32;;;;;;;2.38;0.70;;;;;;;16.27;100.00;100852.50;5228399;28;20237;-85
2021/05/11 15:17:58;;;;;;;1.33;0.70;;;;;;;16.42;100.00;100852.34;5228736;28;20053;-84
2021/05/11 15:20:00;;;;;;;6.90;0.98;;;;;;;16.27;100.00;100841.69;5232119;28;20476;-85
2021/05/11 15:22:30;;;;;;;3.08;0.60;;;;;;;16.81;98.18;100830.75;5229692;28;20088;-85
2021/05/11 15:25:01;;;;;;;2.47;0.65;;;;;;;16.90;91.67;100825.13;5227973;28;20029;-85
2021/05/11 15:27:33;;;;;;;6.25;1.05;;;;;;;16.77;97.73;100817.84;5228165;28;20369;-85
2021/05/11 15:30:05;;;;;;;2.35;1.08;;;;;;;16.63;100.00;100824.25;5227557;28;20041;-85
2021/05/11 15:32:44;;;;;;;3.42;0.85;;;;;;;16.56;100.00;100821.53;5227904;28;20127;-85
2021/05/11 15:35:16;;;;;;;3.33;1.02;;;;;;;16.45;100.00;100828.38;5228495;28;20045;-85
2021/05/11 15:37:52;;;;;;;4.38;1.10;;;;;;;16.33;100.00;100840.88;5226893;28;20020;-85